Time;durP1;ratioP1;P1;durP2;ratioP2;P2;SDS_P1;SDS_P2;PMS_P1;PMS_P2;Temp;Humidity;BMP_temperature;BMP_pressure;BME280_temperature;BME280_humidity;BME280_pressure;Samples;Min_cycle;Max_cycle;Signal;HPM_P1;HPM_P2
2023/10/22 00:00:07;;;;;;;1.80;1.57;;;10.70;99.90;;;;;;486696;244;27971;-70
2023/10/22 00:02:05;;;;;;;2.17;1.10;;;10.70;99.90;;;;;;486378;242;28326;-70
2023/10/22 00:04:06;;;;;;;1.93;1.23;;;10.80;99.90;;;;;;486668;244;28539;-76
2023/10/22 00:06:06;;;;;;;2.90;1.40;;;10.80;99.90;;;;;;486704;244;28268;-71
2023/10/22 00:08:08;;;;;;;4.47;1.30;;;10.90;99.90;;;;;;486673;240;27888;-71
2023/10/22 00:10:09;;;;;;;2.13;1.10;;;10.90;99.90;;;;;;486719;244;27970;-71
2023/10/22 00:12:11;;;;;;;5.80;1.77;;;10.90;99.90;;;;;;486695;244;27838;-70
2023/10/22 00:14:11;;;;;;;3.47;1.50;;;10.90;99.90;;;;;;486687;240;28021;-72
2023/10/22 00:16:13;;;;;;;3.80;1.37;;;10.90;99.90;;;;;;486713;244;27731;-71
2023/10/22 00:18:14;;;;;;;3.83;1.20;;;11.00;99.90;;;;;;486656;240;27852;-71
2023/10/22 00:20:15;;;;;;;3.10;1.40;;;11.00;99.90;;;;;;486649;244;27999;-72
2023/10/22 00:22:17;;;;;;;6.30;1.40;;;11.00;99.90;;;;;;486654;244;28056;-71
2023/10/22 00:24:18;;;;;;;2.10;1.57;;;10.90;99.90;;;;;;486692;244;28045;-71
2023/10/22 00:26:19;;;;;;;4.13;1.43;;;10.80;99.90;;;;;;486654;244;28431;-71
2023/10/22 00:28:20;;;;;;;4.43;1.47;;;10.80;99.90;;;;;;486629;244;28603;-71
2023/10/22 00:30:22;;;;;;;3.00;1.40;;;10.80;99.90;;;;;;486679;240;28339;-73
2023/10/22 00:32:23;;;;;;;1.50;1.40;;;10.70;99.90;;;;;;486681;244;28382;-71
2023/10/22 00:34:24;;;;;;;5.53;1.30;;;10.70;99.90;;;;;;486705;244;27770;-72
2023/10/22 00:36:25;;;;;;;6.30;1.73;;;10.70;99.90;;;;;;486555;244;27639;-70
2023/10/22 00:38:27;;;;;;;5.30;1.43;;;10.70;99.90;;;;;;486681;240;27950;-71
2023/10/22 00:40:28;;;;;;;1.30;1.20;;;10.60;99.90;;;;;;486650;244;27856;-72
2023/10/22 00:42:29;;;;;;;2.80;1.30;;;10.70;99.90;;;;;;486621;244;27715;-71
2023/10/22 00:44:30;;;;;;;7.10;1.50;;;10.60;99.90;;;;;;486640;244;27913;-71
2023/10/22 00:46:32;;;;;;;4.57;1.53;;;10.50;99.90;;;;;;486689;240;27739;-71
2023/10/22 00:48:33;;;;;;;1.10;1.00;;;10.50;99.90;;;;;;486679;244;27883;-71
2023/10/22 00:50:34;;;;;;;2.70;1.40;;;10.50;99.90;;;;;;486671;240;28253;-70
2023/10/22 00:52:35;;;;;;;2.83;1.30;;;10.50;99.90;;;;;;486637;244;28446;-70
2023/10/22 00:54:37;;;;;;;1.60;1.30;;;10.50;99.90;;;;;;486634;244;28426;-71
2023/10/22 00:56:38;;;;;;;3.60;1.40;;;10.50;99.90;;;;;;486618;244;28587;-72
2023/10/22 00:58:39;;;;;;;3.10;1.40;;;10.50;99.90;;;;;;486654;244;27782;-70
2023/10/22 01:00:40;;;;;;;5.40;1.53;;;10.40;99.90;;;;;;486629;244;27754;-71
2023/10/22 01:02:42;;;;;;;3.80;1.40;;;10.40;99.90;;;;;;486611;244;27942;-70
2023/10/22 01:04:43;;;;;;;1.67;1.10;;;10.30;99.90;;;;;;486619;244;27896;-71
2023/10/22 01:06:44;;;;;;;7.10;1.30;;;10.40;99.90;;;;;;486653;244;28135;-73
2023/10/22 01:08:45;;;;;;;1.93;1.20;;;10.40;99.90;;;;;;486645;244;27930;-71
2023/10/22 01:10:47;;;;;;;4.20;1.67;;;10.40;99.90;;;;;;486632;244;27785;-72
2023/10/22 01:12:48;;;;;;;2.77;1.37;;;10.40;99.90;;;;;;486629;244;27967;-71
2023/10/22 01:14:49;;;;;;;3.80;1.30;;;10.50;99.90;;;;;;486693;244;27864;-71
2023/10/22 01:16:50;;;;;;;7.10;1.50;;;10.40;99.90;;;;;;486693;244;28359;-71
2023/10/22 01:18:52;;;;;;;5.53;1.50;;;10.40;99.90;;;;;;486643;244;28454;-71
2023/10/22 01:20:53;;;;;;;3.30;1.37;;;10.50;99.90;;;;;;486635;244;28368;-71
2023/10/22 01:22:54;;;;;;;6.17;1.53;;;10.50;99.90;;;;;;486632;244;27952;-73
2023/10/22 01:24:55;;;;;;;8.40;2.03;;;10.50;99.90;;;;;;486670;244;27777;-71
2023/10/22 01:26:57;;;;;;;7.73;1.63;;;10.50;99.90;;;;;;486632;243;27660;-71
2023/10/22 01:28:58;;;;;;;4.80;1.50;;;10.60;99.90;;;;;;486642;244;27705;-71
2023/10/22 01:31:00;;;;;;;4.43;1.57;;;10.60;99.90;;;;;;486639;244;27890;-71
2023/10/22 01:33:01;;;;;;;6.90;1.73;;;10.70;99.90;;;;;;486673;244;27779;-71
2023/10/22 01:35:02;;;;;;;3.87;1.50;;;10.70;99.90;;;;;;486653;244;27665;-71
2023/10/22 01:37:03;;;;;;;2.50;1.57;;;10.60;99.90;;;;;;486659;244;27908;-71
2023/10/22 01:39:04;;;;;;;2.90;1.53;;;10.60;99.90;;;;;;486685;244;27863;-70
2023/10/22 01:41:05;;;;;;;2.60;1.20;;;10.50;99.90;;;;;;486652;244;28462;-72
2023/10/22 01:43:07;;;;;;;4.70;1.60;;;10.50;99.90;;;;;;486667;244;28535;-71
2023/10/22 01:45:08;;;;;;;1.63;1.30;;;10.50;99.90;;;;;;486630;240;28511;-70
2023/10/22 01:47:10;;;;;;;5.53;1.70;;;10.40;99.90;;;;;;486625;244;28306;-71
2023/10/22 01:49:11;;;;;;;2.07;1.30;;;10.40;99.90;;;;;;486675;244;27949;-71
2023/10/22 01:51:12;;;;;;;4.30;1.30;;;10.40;99.90;;;;;;486652;244;27939;-71
2023/10/22 01:53:13;;;;;;;1.57;1.00;;;10.30;99.90;;;;;;486652;244;27894;-71
2023/10/22 01:55:14;;;;;;;2.80;1.47;;;10.30;99.90;;;;;;486631;244;27881;-71
2023/10/22 01:57:16;;;;;;;6.67;1.70;;;10.30;99.90;;;;;;486684;244;28000;-71
2023/10/22 01:59:17;;;;;;;3.33;1.40;;;10.20;99.90;;;;;;486641;244;28327;-72
2023/10/22 02:01:18;;;;;;;3.30;1.67;;;10.20;99.90;;;;;;486654;244;27832;-71
2023/10/22 02:03:19;;;;;;;6.13;1.70;;;10.20;99.90;;;;;;486673;244;27943;-71
2023/10/22 02:05:20;;;;;;;4.20;1.53;;;10.20;99.90;;;;;;486679;244;28454;-70
2023/10/22 02:07:22;;;;;;;3.27;1.53;;;10.20;99.90;;;;;;486675;244;28290;-70
2023/10/22 02:09:23;;;;;;;6.80;1.57;;;10.10;99.90;;;;;;486645;244;28477;-72
2023/10/22 02:11:24;;;;;;;4.97;1.80;;;10.20;99.90;;;;;;486633;244;28169;-71
2023/10/22 02:13:26;;;;;;;2.17;1.40;;;10.10;99.90;;;;;;486645;244;27893;-71
2023/10/22 02:15:27;;;;;;;3.37;1.80;;;10.10;99.90;;;;;;486616;244;27892;-71
2023/10/22 02:17:28;;;;;;;6.90;1.60;;;10.10;99.90;;;;;;486622;244;27843;-70
2023/10/22 02:19:29;;;;;;;4.30;1.63;;;10.10;99.90;;;;;;486632;244;28076;-71
2023/10/22 02:21:30;;;;;;;4.63;1.70;;;10.10;99.90;;;;;;486639;244;27964;-70
2023/10/22 02:23:32;;;;;;;1.93;1.30;;;10.10;99.90;;;;;;486621;244;27781;-70
2023/10/22 02:25:33;;;;;;;5.23;1.70;;;10.10;99.90;;;;;;486622;240;27851;-73
2023/10/22 02:27:35;;;;;;;3.60;1.60;;;10.00;99.90;;;;;;486627;244;28009;-71
2023/10/22 02:29:36;;;;;;;5.43;1.97;;;10.00;99.90;;;;;;486626;240;27907;-71
2023/10/22 02:31:37;;;;;;;2.20;1.30;;;10.00;99.90;;;;;;486618;244;28325;-70
2023/10/22 02:33:38;;;;;;;6.97;2.20;;;10.00;99.90;;;;;;486637;244;28378;-70
2023/10/22 02:35:39;;;;;;;8.30;2.13;;;9.90;99.90;;;;;;486626;244;28386;-71
2023/10/22 02:37:40;;;;;;;3.13;1.77;;;9.90;99.90;;;;;;486634;244;27938;-70
2023/10/22 02:39:42;;;;;;;2.10;1.20;;;9.90;99.90;;;;;;486663;240;27901;-71
2023/10/22 02:41:43;;;;;;;2.90;1.50;;;9.90;99.90;;;;;;486649;244;27856;-71
2023/10/22 02:43:44;;;;;;;4.40;1.80;;;9.90;99.90;;;;;;486658;244;27861;-71
2023/10/22 02:45:45;;;;;;;4.07;1.40;;;9.90;99.90;;;;;;486648;244;27977;-71
2023/10/22 02:47:47;;;;;;;5.03;1.50;;;9.90;99.90;;;;;;486657;244;27777;-70
2023/10/22 02:49:48;;;;;;;5.20;1.70;;;9.90;99.90;;;;;;486688;244;27918;-71
2023/10/22 02:51:50;;;;;;;11.80;1.80;;;9.90;99.90;;;;;;486689;244;27933;-70
2023/10/22 02:53:50;;;;;;;5.90;1.47;;;9.90;99.90;;;;;;486689;244;27935;-70
2023/10/22 02:55:52;;;;;;;5.43;2.17;;;9.80;99.90;;;;;;486683;244;27912;-71
2023/10/22 02:57:53;;;;;;;4.30;1.37;;;9.80;99.90;;;;;;486706;244;27919;-71
2023/10/22 02:59:54;;;;;;;5.40;1.30;;;9.90;99.90;;;;;;486673;240;27970;-70
2023/10/22 03:01:56;;;;;;;5.70;1.30;;;9.90;99.90;;;;;;486653;244;27891;-71
2023/10/22 03:03:57;;;;;;;8.03;2.30;;;9.90;99.90;;;;;;486677;244;27503;-71
2023/10/22 03:05:58;;;;;;;4.10;1.77;;;9.90;99.90;;;;;;486670;244;28338;-71
2023/10/22 03:07:59;;;;;;;2.97;1.50;;;10.00;99.90;;;;;;486664;244;28390;-70
2023/10/22 03:10:00;;;;;;;5.30;2.10;;;9.90;99.90;;;;;;486705;244;28348;-70
2023/10/22 03:12:02;;;;;;;4.90;1.50;;;10.00;99.90;;;;;;486680;244;28413;-71
2023/10/22 03:14:04;;;;;;;6.33;1.50;;;10.00;99.90;;;;;;486622;244;27715;-70
2023/10/22 03:16:04;;;;;;;8.30;1.70;;;10.00;99.90;;;;;;486627;244;27987;-70
2023/10/22 03:18:07;;;;;;;6.20;1.43;;;10.00;99.90;;;;;;486638;244;27902;-70
2023/10/22 03:20:07;;;;;;;6.80;1.30;;;10.00;99.90;;;;;;486598;244;27854;-70
2023/10/22 03:22:08;;;;;;;7.37;1.87;;;10.00;99.90;;;;;;486638;244;27903;-72
2023/10/22 03:24:11;;;;;;;3.30;1.53;;;10.10;99.90;;;;;;486606;242;27513;-70
2023/10/22 03:26:18;;;;;;;5.40;1.70;;;10.10;99.90;;;;;;486603;244;28041;-70
2023/10/22 03:28:15;;;;;;;4.80;2.13;;;10.10;99.90;;;;;;486463;244;28091;-71
2023/10/22 03:30:17;;;;;;;2.40;1.80;;;10.00;99.90;;;;;;486662;244;27890;-72
2023/10/22 03:32:17;;;;;;;16.30;2.40;;;10.00;99.90;;;;;;486655;244;27956;-71
2023/10/22 03:34:19;;;;;;;6.40;3.27;;;10.10;99.90;;;;;;486567;244;28487;-70
2023/10/22 03:36:20;;;;;;;5.87;2.37;;;10.00;99.90;;;;;;486687;244;29225;-70
2023/10/22 03:38:21;;;;;;;10.60;2.60;;;10.10;99.90;;;;;;486691;244;27916;-71
2023/10/22 03:40:22;;;;;;;7.70;4.60;;;10.00;99.90;;;;;;486723;244;27629;-71
2023/10/22 03:42:24;;;;;;;8.50;3.43;;;10.00;99.90;;;;;;486668;244;27864;-71
2023/10/22 03:44:25;;;;;;;6.40;2.50;;;10.00;99.90;;;;;;486670;244;28012;-71
2023/10/22 03:46:26;;;;;;;3.70;2.27;;;10.00;99.90;;;;;;486644;244;28204;-71
2023/10/22 03:48:27;;;;;;;9.20;4.83;;;10.00;99.90;;;;;;486655;244;27963;-70
2023/10/22 03:50:29;;;;;;;7.23;2.50;;;10.00;99.90;;;;;;486654;244;27847;-71
2023/10/22 03:52:30;;;;;;;16.53;9.60;;;10.00;99.90;;;;;;486669;244;27938;-71
2023/10/22 03:54:31;;;;;;;6.57;4.80;;;10.00;99.90;;;;;;486651;244;28367;-71
2023/10/22 03:56:34;;;;;;;7.30;2.97;;;10.00;99.90;;;;;;486649;244;28406;-74
2023/10/22 03:58:35;;;;;;;6.33;3.13;;;10.00;99.90;;;;;;486630;244;27666;-70
2023/10/22 04:00:36;;;;;;;10.60;4.30;;;9.90;99.90;;;;;;486657;244;27972;-72
2023/10/22 04:02:38;;;;;;;6.00;3.00;;;9.90;99.90;;;;;;486625;244;28072;-71
2023/10/22 04:04:39;;;;;;;6.43;2.43;;;9.90;99.90;;;;;;486659;244;28357;-70
2023/10/22 04:06:40;;;;;;;6.00;2.13;;;9.90;99.90;;;;;;486617;244;28439;-70
2023/10/22 04:08:41;;;;;;;6.30;1.70;;;9.90;99.90;;;;;;486654;244;28303;-70
2023/10/22 04:10:43;;;;;;;7.00;1.83;;;10.00;99.90;;;;;;486518;242;28232;-72
2023/10/22 04:12:44;;;;;;;7.13;1.93;;;10.00;99.90;;;;;;486692;244;27915;-70
2023/10/22 04:14:45;;;;;;;10.20;1.73;;;10.00;99.90;;;;;;486694;244;27410;-70
2023/10/22 04:16:46;;;;;;;6.43;2.20;;;10.00;99.90;;;;;;486671;244;27888;-71
2023/10/22 04:18:48;;;;;;;3.60;1.50;;;10.00;99.90;;;;;;486693;242;27498;-71
2023/10/22 04:20:50;;;;;;;7.37;1.83;;;10.00;99.90;;;;;;486696;244;27907;-71
2023/10/22 04:22:51;;;;;;;7.97;1.90;;;10.00;99.90;;;;;;486604;244;27912;-70
2023/10/22 04:24:51;;;;;;;10.13;3.00;;;10.00;99.90;;;;;;486635;244;27895;-70
2023/10/22 04:26:53;;;;;;;8.90;2.10;;;10.00;99.90;;;;;;486679;244;27915;-71
2023/10/22 04:28:54;;;;;;;4.80;1.80;;;10.00;99.90;;;;;;486668;244;28311;-70
2023/10/22 04:30:55;;;;;;;12.53;1.93;;;10.00;99.90;;;;;;486680;244;28419;-71
2023/10/22 04:32:56;;;;;;;6.50;1.67;;;10.00;99.90;;;;;;486687;244;28336;-70
2023/10/22 04:34:58;;;;;;;7.57;2.30;;;10.00;99.90;;;;;;486687;244;27984;-71
2023/10/22 04:36:59;;;;;;;9.27;2.10;;;10.00;99.90;;;;;;486678;244;28006;-72
2023/10/22 04:39:00;;;;;;;8.00;2.13;;;10.00;99.90;;;;;;486622;244;27804;-71
2023/10/22 04:41:01;;;;;;;9.30;2.00;;;10.00;99.90;;;;;;486655;244;27685;-71
2023/10/22 04:43:03;;;;;;;6.60;1.63;;;10.00;99.90;;;;;;486623;244;27959;-71
2023/10/22 04:45:04;;;;;;;7.70;1.50;;;10.00;99.90;;;;;;486657;244;27725;-70
2023/10/22 04:47:05;;;;;;;6.37;1.80;;;10.10;99.90;;;;;;486656;244;27550;-71
2023/10/22 04:49:06;;;;;;;6.90;2.27;;;10.00;99.90;;;;;;486637;244;27866;-70
2023/10/22 04:51:09;;;;;;;9.30;2.00;;;10.10;99.90;;;;;;486650;244;27788;-71
2023/10/22 04:53:09;;;;;;;9.47;2.23;;;10.10;99.90;;;;;;486623;244;28527;-72
2023/10/22 04:55:13;;;;;;;12.33;1.87;;;10.10;99.90;;;;;;486629;244;28403;-71
2023/10/22 04:57:14;;;;;;;6.43;2.20;;;10.10;99.90;;;;;;486699;244;28178;-70
2023/10/22 04:59:15;;;;;;;7.80;1.73;;;10.10;99.90;;;;;;486629;244;28345;-72
2023/10/22 05:01:17;;;;;;;5.20;1.70;;;10.00;99.90;;;;;;486674;244;27763;-70
2023/10/22 05:03:18;;;;;;;13.60;2.30;;;10.00;99.90;;;;;;486676;244;27976;-71
2023/10/22 05:05:20;;;;;;;6.83;1.70;;;10.00;99.90;;;;;;486637;244;27895;-72
2023/10/22 05:07:20;;;;;;;4.30;1.97;;;10.00;99.90;;;;;;486649;242;27822;-70
2023/10/22 05:09:22;;;;;;;9.03;1.80;;;10.10;99.90;;;;;;486675;244;27656;-71
2023/10/22 05:11:23;;;;;;;5.83;1.80;;;10.00;99.90;;;;;;486630;244;27918;-71
2023/10/22 05:13:24;;;;;;;7.20;2.00;;;10.10;99.90;;;;;;486690;244;27900;-71
2023/10/22 05:15:26;;;;;;;3.13;1.57;;;10.00;99.90;;;;;;486687;244;27500;-71
2023/10/22 05:17:27;;;;;;;7.70;2.20;;;10.00;99.90;;;;;;486681;244;28422;-70
2023/10/22 05:19:29;;;;;;;8.10;1.93;;;10.00;99.90;;;;;;486675;244;28037;-70
2023/10/22 05:21:30;;;;;;;6.70;2.43;;;10.00;99.90;;;;;;486537;244;27852;-71
2023/10/22 05:23:32;;;;;;;10.00;1.90;;;10.00;99.90;;;;;;486680;244;27910;-71
2023/10/22 05:25:33;;;;;;;7.57;1.63;;;10.00;99.90;;;;;;486648;244;28316;-71
2023/10/22 05:27:34;;;;;;;11.03;1.80;;;10.00;99.90;;;;;;486628;244;28455;-71
2023/10/22 05:29:37;;;;;;;10.07;2.33;;;10.00;99.90;;;;;;486658;244;28427;-71
2023/10/22 05:31:37;;;;;;;4.23;2.00;;;10.00;99.90;;;;;;486621;244;27860;-70
2023/10/22 05:33:38;;;;;;;4.73;1.40;;;10.00;99.90;;;;;;486644;244;27999;-71
2023/10/22 05:35:39;;;;;;;12.77;2.40;;;10.00;99.90;;;;;;486643;244;27921;-70
2023/10/22 05:37:40;;;;;;;6.50;1.73;;;9.90;99.90;;;;;;486647;244;27967;-70
2023/10/22 05:39:42;;;;;;;4.50;2.03;;;9.90;99.90;;;;;;486642;244;28228;-72
2023/10/22 05:41:43;;;;;;;6.33;1.57;;;9.80;99.90;;;;;;486628;244;27913;-71
2023/10/22 05:43:44;;;;;;;9.60;1.60;;;9.90;99.90;;;;;;486622;244;27626;-71
2023/10/22 05:45:46;;;;;;;6.13;1.53;;;9.90;99.90;;;;;;486618;244;27847;-70
2023/10/22 05:47:47;;;;;;;3.90;1.70;;;9.90;99.90;;;;;;486641;244;27964;-71
2023/10/22 05:49:48;;;;;;;15.20;2.53;;;9.90;99.90;;;;;;486621;244;27909;-72
2023/10/22 05:51:50;;;;;;;8.43;2.10;;;9.90;99.90;;;;;;486638;244;28338;-70
2023/10/22 05:53:50;;;;;;;4.50;1.70;;;9.90;99.90;;;;;;486652;244;29206;-71
2023/10/22 05:55:52;;;;;;;5.33;2.03;;;9.90;99.90;;;;;;486602;244;28475;-71
2023/10/22 05:57:53;;;;;;;5.67;2.33;;;9.90;99.90;;;;;;486641;244;28344;-71
2023/10/22 05:59:54;;;;;;;9.87;2.20;;;9.90;99.90;;;;;;486663;244;28360;-70
2023/10/22 06:01:55;;;;;;;5.23;2.10;;;10.00;99.90;;;;;;486657;244;27941;-70
2023/10/22 06:03:57;;;;;;;9.60;1.93;;;10.00;99.90;;;;;;486630;244;27909;-70
2023/10/22 06:05:58;;;;;;;5.10;1.70;;;10.00;99.90;;;;;;486637;244;27925;-71
2023/10/22 06:07:59;;;;;;;5.13;1.57;;;10.00;99.90;;;;;;486675;244;27825;-71
2023/10/22 06:10:00;;;;;;;5.70;1.67;;;10.00;99.90;;;;;;486673;244;27846;-72
2023/10/22 06:12:02;;;;;;;12.33;2.53;;;9.90;99.90;;;;;;486654;244;27888;-70
2023/10/22 06:14:03;;;;;;;3.73;2.87;;;9.90;99.90;;;;;;486676;240;27773;-71
2023/10/22 06:16:04;;;;;;;10.00;2.70;;;9.90;99.90;;;;;;486639;244;28319;-71
2023/10/22 06:18:05;;;;;;;11.30;10.20;;;9.90;99.90;;;;;;486661;244;27956;-71
2023/10/22 06:20:07;;;;;;;7.27;3.53;;;9.90;99.90;;;;;;486705;240;28011;-71
2023/10/22 06:22:08;;;;;;;16.60;8.13;;;9.90;99.90;;;;;;486703;244;28097;-70
2023/10/22 06:24:09;;;;;;;9.67;2.50;;;10.00;99.90;;;;;;486656;244;28085;-71
2023/10/22 06:26:11;;;;;;;5.70;3.60;;;10.00;99.90;;;;;;486658;244;28220;-70
2023/10/22 06:28:12;;;;;;;6.73;3.53;;;10.00;99.90;;;;;;486263;244;27710;-70
2023/10/22 06:30:13;;;;;;;6.33;3.40;;;10.00;99.90;;;;;;486649;244;27982;-71
2023/10/22 06:32:14;;;;;;;11.10;1.90;;;10.00;99.90;;;;;;486643;244;27858;-71
2023/10/22 06:34:15;;;;;;;4.90;2.43;;;10.00;99.90;;;;;;486657;244;27876;-70
2023/10/22 06:36:17;;;;;;;8.10;2.40;;;10.10;99.90;;;;;;486653;244;27918;-71
2023/10/22 06:38:18;;;;;;;3.50;1.90;;;10.10;99.90;;;;;;486672;244;27510;-70
2023/10/22 06:40:19;;;;;;;5.67;1.50;;;10.20;99.90;;;;;;486627;244;28040;-71
2023/10/22 06:42:20;;;;;;;8.37;2.17;;;10.20;99.90;;;;;;486634;244;28067;-72
2023/10/22 06:44:22;;;;;;;4.70;2.43;;;10.20;99.90;;;;;;486675;244;27864;-70
2023/10/22 06:46:23;;;;;;;8.40;2.87;;;10.30;99.90;;;;;;486639;244;28348;-71
2023/10/22 06:48:24;;;;;;;11.30;2.40;;;10.30;99.90;;;;;;486648;244;28075;-71
2023/10/22 06:50:25;;;;;;;9.33;2.30;;;10.40;99.90;;;;;;486618;244;28378;-71
2023/10/22 06:52:27;;;;;;;9.77;2.30;;;10.50;99.90;;;;;;486638;244;27875;-72
2023/10/22 06:54:28;;;;;;;7.00;1.70;;;10.50;99.90;;;;;;486613;244;27853;-71
2023/10/22 06:56:29;;;;;;;8.43;2.00;;;10.50;99.90;;;;;;486676;244;27909;-71
2023/10/22 06:58:30;;;;;;;11.10;2.17;;;10.60;99.90;;;;;;486637;244;27860;-70
2023/10/22 07:00:32;;;;;;;2.73;1.43;;;10.60;99.90;;;;;;486655;244;27859;-72
2023/10/22 07:02:33;;;;;;;9.97;2.43;;;10.60;99.90;;;;;;486699;244;27853;-71
2023/10/22 07:04:34;;;;;;;4.80;1.73;;;10.60;99.90;;;;;;486690;244;27861;-70
2023/10/22 07:06:36;;;;;;;4.20;1.73;;;10.60;99.90;;;;;;486703;244;27780;-71
2023/10/22 07:08:37;;;;;;;8.13;2.23;;;10.60;99.90;;;;;;486497;244;29576;-71
2023/10/22 07:10:38;;;;;;;6.43;1.93;;;10.60;99.90;;;;;;486635;244;28286;-71
2023/10/22 07:12:39;;;;;;;8.30;2.10;;;10.60;99.90;;;;;;486608;244;28606;-71
2023/10/22 07:14:40;;;;;;;11.60;2.07;;;10.70;99.90;;;;;;486558;240;27937;-71
2023/10/22 07:16:42;;;;;;;6.60;2.50;;;10.70;99.90;;;;;;486537;244;28036;-71
2023/10/22 07:18:43;;;;;;;7.20;2.07;;;10.70;99.90;;;;;;486600;244;27890;-71
2023/10/22 07:20:44;;;;;;;12.03;2.67;;;10.70;99.90;;;;;;486609;242;27990;-71
2023/10/22 07:22:45;;;;;;;9.27;1.90;;;10.70;99.90;;;;;;486657;244;28008;-71
2023/10/22 07:24:47;;;;;;;10.80;2.30;;;10.70;99.90;;;;;;486575;244;28083;-70
2023/10/22 07:26:48;;;;;;;4.70;1.80;;;10.70;99.90;;;;;;486598;244;28101;-71
2023/10/22 07:28:52;;;;;;;9.20;2.40;;;10.80;99.90;;;;;;486617;244;27902;-72
2023/10/22 07:30:52;;;;;;;10.43;2.30;;;10.80;99.90;;;;;;486586;244;27878;-71
2023/10/22 07:32:53;;;;;;;5.97;1.70;;;10.80;99.90;;;;;;486696;244;28244;-72
2023/10/22 07:34:55;;;;;;;6.13;2.30;;;10.80;99.90;;;;;;486638;244;28401;-71
2023/10/22 07:36:56;;;;;;;7.73;1.80;;;10.80;99.90;;;;;;486641;244;28571;-71
2023/10/22 07:38:57;;;;;;;6.00;1.80;;;10.70;99.90;;;;;;486578;244;28453;-71
2023/10/22 07:40:58;;;;;;;11.07;2.70;;;10.70;99.90;;;;;;486688;244;27850;-71
2023/10/22 07:43:00;;;;;;;8.70;2.13;;;10.70;99.90;;;;;;486697;241;27855;-72
2023/10/22 07:45:01;;;;;;;5.83;2.17;;;10.70;99.90;;;;;;486672;244;27685;-71
2023/10/22 07:47:02;;;;;;;6.00;2.00;;;10.70;99.90;;;;;;486645;242;28099;-70
2023/10/22 07:49:03;;;;;;;3.97;1.53;;;10.60;99.90;;;;;;486707;244;28330;-72
2023/10/22 07:51:05;;;;;;;6.73;1.80;;;10.60;99.90;;;;;;486647;244;27866;-71
2023/10/22 07:53:06;;;;;;;4.50;1.87;;;10.60;99.90;;;;;;486645;244;27783;-71
2023/10/22 07:55:07;;;;;;;4.50;2.00;;;10.60;99.90;;;;;;486667;244;27762;-71
2023/10/22 07:57:08;;;;;;;8.87;1.93;;;10.60;99.90;;;;;;486642;244;27900;-71
2023/10/22 07:59:10;;;;;;;9.93;2.30;;;10.60;99.90;;;;;;478718;244;28591;-71
2023/10/22 08:01:11;;;;;;;6.50;1.87;;;10.70;99.90;;;;;;479646;248;28622;-70
2023/10/22 08:03:12;;;;;;;8.70;2.37;;;10.70;99.90;;;;;;479672;248;28599;-72
2023/10/22 08:05:14;;;;;;;6.50;1.83;;;10.70;99.90;;;;;;479638;248;28004;-71
2023/10/22 08:07:18;;;;;;;7.90;2.20;;;10.80;99.90;;;;;;479650;248;27938;-71
2023/10/22 08:09:16;;;;;;;8.73;3.00;;;10.80;99.90;;;;;;479240;247;27994;-71
2023/10/22 08:11:17;;;;;;;3.63;2.33;;;10.90;99.90;;;;;;479635;248;28064;-71
2023/10/22 08:13:19;;;;;;;8.90;5.03;;;10.90;99.90;;;;;;479656;248;28187;-71
2023/10/22 08:15:20;;;;;;;9.53;4.80;;;10.80;99.90;;;;;;479627;248;28078;-72
2023/10/22 08:17:21;;;;;;;10.23;4.73;;;10.80;99.90;;;;;;479618;248;28024;-70
2023/10/22 08:19:22;;;;;;;14.33;9.53;;;10.90;99.90;;;;;;479641;248;28320;-71
2023/10/22 08:21:24;;;;;;;15.10;4.90;;;10.90;99.90;;;;;;479591;248;28374;-71
2023/10/22 08:23:25;;;;;;;8.30;3.60;;;10.90;99.90;;;;;;479611;248;28599;-71
2023/10/22 08:25:26;;;;;;;6.13;3.63;;;10.90;99.90;;;;;;479633;248;28510;-73
2023/10/22 08:27:27;;;;;;;13.60;9.30;;;11.00;99.90;;;;;;479625;248;27982;-70
2023/10/22 08:29:29;;;;;;;18.77;10.43;;;11.00;99.90;;;;;;479621;248;27977;-71
2023/10/22 08:31:30;;;;;;;9.77;6.33;;;11.10;99.90;;;;;;479662;248;27970;-71
2023/10/22 08:33:31;;;;;;;14.17;8.20;;;11.20;99.90;;;;;;479651;248;28069;-71
2023/10/22 08:35:32;;;;;;;15.10;9.30;;;11.20;99.90;;;;;;479628;248;28008;-70
2023/10/22 08:37:34;;;;;;;18.30;7.90;;;11.30;99.90;;;;;;479676;248;28013;-71
2023/10/22 08:39:35;;;;;;;11.43;5.53;;;11.30;99.90;;;;;;479667;248;28324;-71
2023/10/22 08:41:36;;;;;;;7.40;4.07;;;11.30;99.90;;;;;;479670;242;28624;-71
2023/10/22 08:43:40;;;;;;;7.23;3.20;;;11.30;99.90;;;;;;479659;248;28763;-71
2023/10/22 08:45:39;;;;;;;5.53;2.53;;;11.40;99.90;;;;;;479572;248;28134;-71
2023/10/22 08:47:41;;;;;;;15.90;3.73;;;;;;;;;;479617;248;28198;-70
2023/10/22 08:49:42;;;;;;;8.00;3.10;;;11.30;99.90;;;;;;479637;248;27730;-72
2023/10/22 08:51:44;;;;;;;11.53;2.40;;;11.40;99.90;;;;;;479563;248;28111;-71
2023/10/22 08:53:45;;;;;;;10.43;2.33;;;11.50;99.90;;;;;;479566;248;28282;-71
2023/10/22 08:55:46;;;;;;;12.30;2.50;;;11.50;99.90;;;;;;479611;248;28201;-70
2023/10/22 08:57:47;;;;;;;12.43;2.90;;;11.60;99.90;;;;;;479646;248;28192;-71
2023/10/22 08:59:49;;;;;;;10.70;2.53;;;11.70;99.90;;;;;;479650;242;28004;-73
2023/10/22 09:01:50;;;;;;;10.43;2.50;;;11.80;99.90;;;;;;479599;248;28297;-71
2023/10/22 09:03:51;;;;;;;6.40;2.10;;;11.80;99.90;;;;;;479629;248;28825;-71
2023/10/22 09:05:53;;;;;;;10.33;2.33;;;11.90;99.90;;;;;;479614;248;28882;-73
2023/10/22 09:07:54;;;;;;;14.90;2.43;;;11.90;99.90;;;;;;479633;248;28842;-71
2023/10/22 09:09:55;;;;;;;12.07;3.00;;;11.90;99.90;;;;;;479651;248;28216;-71
2023/10/22 09:11:56;;;;;;;12.17;2.53;;;11.90;99.90;;;;;;479620;248;28210;-71
2023/10/22 09:13:57;;;;;;;8.00;2.90;;;11.90;99.90;;;;;;479649;248;28233;-71
2023/10/22 09:15:59;;;;;;;10.23;2.30;;;11.90;99.90;;;;;;479656;248;28715;-72
2023/10/22 09:18:01;;;;;;;11.93;2.80;;;11.90;99.90;;;;;;479631;248;28248;-71
2023/10/22 09:20:02;;;;;;;10.03;2.40;;;12.00;99.90;;;;;;479634;248;28351;-71
2023/10/22 09:22:03;;;;;;;7.60;2.37;;;12.00;99.90;;;;;;479609;248;28423;-71
2023/10/22 09:24:07;;;;;;;7.00;2.33;;;12.00;99.90;;;;;;479635;248;28967;-70
2023/10/22 09:26:09;;;;;;;18.90;3.90;;;12.10;99.90;;;;;;479615;248;28320;-71
2023/10/22 09:28:09;;;;;;;7.23;2.23;;;12.00;99.90;;;;;;479607;248;28346;-71
2023/10/22 09:30:11;;;;;;;8.50;2.40;;;12.00;99.90;;;;;;479618;248;28336;-71
2023/10/22 09:32:12;;;;;;;10.47;2.53;;;12.00;99.90;;;;;;479590;248;28320;-71
2023/10/22 09:34:13;;;;;;;16.80;2.90;;;12.00;99.90;;;;;;479672;248;28498;-72
2023/10/22 09:36:16;;;;;;;9.97;3.47;;;;;;;;;;479646;248;29016;-71
2023/10/22 09:38:17;;;;;;;11.00;2.50;;;12.00;99.90;;;;;;479645;245;27070;-71
2023/10/22 09:40:18;;;;;;;10.67;2.80;;;12.10;99.90;;;;;;479642;248;28244;-71
2023/10/22 09:42:19;;;;;;;11.97;2.80;;;12.10;99.90;;;;;;479656;248;28456;-72
2023/10/22 09:44:20;;;;;;;14.50;2.50;;;12.10;99.90;;;;;;479664;248;29090;-71
2023/10/22 09:46:22;;;;;;;9.97;2.53;;;12.20;99.90;;;;;;479643;248;28962;-71
2023/10/22 09:48:23;;;;;;;7.83;2.50;;;12.20;99.90;;;;;;479633;248;29972;-71
2023/10/22 09:50:24;;;;;;;22.13;2.60;;;12.10;99.90;;;;;;479617;248;29021;-71
2023/10/22 09:52:25;;;;;;;9.50;2.30;;;12.10;99.90;;;;;;479614;248;28638;-71
2023/10/22 09:54:27;;;;;;;6.93;2.10;;;12.10;99.90;;;;;;479617;248;28435;-70
2023/10/22 09:56:28;;;;;;;9.90;2.10;;;12.10;99.90;;;;;;479640;248;28557;-71
2023/10/22 09:58:30;;;;;;;13.97;2.63;;;12.10;99.90;;;;;;479633;248;28230;-73
2023/10/22 10:00:30;;;;;;;11.80;2.87;;;12.10;99.90;;;;;;479621;248;28412;-71
2023/10/22 10:02:32;;;;;;;10.97;2.53;;;12.10;99.90;;;;;;479663;248;28667;-70
2023/10/22 10:04:34;;;;;;;15.87;2.63;;;12.20;99.90;;;;;;479639;248;28449;-71
2023/10/22 10:06:34;;;;;;;12.43;2.57;;;12.20;99.90;;;;;;479610;248;28372;-70
2023/10/22 10:08:36;;;;;;;10.37;2.70;;;12.20;99.90;;;;;;479638;248;29252;-71
2023/10/22 10:10:37;;;;;;;14.17;2.40;;;12.30;99.90;;;;;;479639;248;28763;-71
2023/10/22 10:12:38;;;;;;;7.90;2.77;;;12.40;99.90;;;;;;479572;248;28910;-71
2023/10/22 10:14:41;;;;;;;16.83;2.77;;;12.50;99.90;;;;;;479542;248;28451;-71
2023/10/22 10:16:40;;;;;;;14.70;2.70;;;12.70;99.90;;;;;;479523;248;28575;-71
2023/10/22 10:18:42;;;;;;;9.13;2.70;;;12.80;99.90;;;;;;479591;243;28459;-71
2023/10/22 10:20:45;;;;;;;11.17;2.60;;;13.00;99.90;;;;;;479605;248;28137;-71
2023/10/22 10:22:44;;;;;;;8.80;2.30;;;13.00;99.90;;;;;;479609;248;28880;-71
2023/10/22 10:24:46;;;;;;;10.00;2.17;;;13.00;99.90;;;;;;479626;248;28891;-73
2023/10/22 10:26:47;;;;;;;12.83;2.20;;;13.10;99.90;;;;;;479609;248;28413;-70
2023/10/22 10:28:50;;;;;;;15.77;3.20;;;13.00;99.90;;;;;;479611;248;28576;-71